PWSweather.com
Personal Weather Stations
Station Observations
PENICUIKWS
PenicuikGB

PenicuikGB

Lat: 55.830932, Lon: -3.224533000000065

Elevation: 166

Station Type: Fine Offset

http://weather.penicuik.org

High Low Average
Temperature 54.0°F12.2°C 29.7°F-1.3°C 39.9°F4.4°C
Dew Point 47.5°F8.6°C 25.4°F-3.7°C 35.3°F1.8°C
Winds 7.6 mph 12.2 kmh Calm Calm 1.0 mph E1.6 kmh E
Wind Gusts 7.6 mph12.2 kmh -- 2.0 mph3.2 kmh
Humidity 95% 49% 84%
Pressure 29.74 in1007.1 mb 29.28 in991.5 mb -
Precipitation 0.64 in16.3 mm - -
Hour Temp Dew Point Humidity Winds Wind Gusts Pressure Precip Precip Rate Daily Precip Total
06:51 AM 35.2°F1.8°C 29.7°F-1.3°C 80% 0.7 mph NW1.1 kmh NW 0.7 mph1.1 kmh 29.35 in993.9 mb 0.00 in0.0 mm 0.00 in0.0 mm 0.01 in0.3 mm
06:52 AM 30.9°F-0.6°C 28.1°F-2.2°C 89% 0.7 mph NW1.1 kmh NW 0.7 mph1.1 kmh 29.47 in998.0 mb 0.00 in0.0 mm 0.00 in0.0 mm 0.00 in0.0 mm
06:53 AM 37.0°F2.8°C 33.5°F0.8°C 87% 7.6 mph NW12.2 kmh NW 7.6 mph12.2 kmh 29.36 in994.2 mb 0.04 in1.0 mm 2.40 in61.0 mm 0.21 in5.3 mm
06:54 AM 47.3°F8.5°C 41.1°F5.1°C 79% 3.1 mph NE5.0 kmh NE 3.1 mph5.0 kmh 29.33 in993.2 mb 0.00 in0.0 mm 0.00 in0.0 mm 0.01 in0.3 mm
06:55 AM 40.5°F4.7°C 39.1°F3.9°C 95% 2.2 mph N3.5 kmh N 2.2 mph3.5 kmh 29.37 in994.6 mb 0.00 in0.0 mm 0.00 in0.0 mm 0.04 in1.0 mm
07:00 AM 37.8°F3.2°C 35.4°F1.9°C 91% 0.1 mph S0.2 kmh S 0.7 mph1.1 kmh 29.64 in1003.7 mb 0.00 in0.0 mm 0.00 in0.0 mm 0.04 in1.0 mm
07:15 AM 37.9°F3.3°C 35.6°F2.0°C 91% 1.1 mph SSW1.8 kmh SSW 2.2 mph3.5 kmh 29.65 in1004.1 mb 0.00 in0.0 mm 0.00 in0.0 mm 0.04 in1.0 mm
07:30 AM 38.5°F3.6°C 36.1°F2.3°C 91% 0.8 mph SSE1.3 kmh SSE 1.6 mph2.6 kmh 29.65 in1004.1 mb 0.00 in0.0 mm 0.00 in0.0 mm 0.04 in1.0 mm
07:45 AM 38.5°F3.6°C 36.1°F2.3°C 91% 0.1 mph W0.2 kmh W 0.7 mph1.1 kmh 29.66 in1004.4 mb 0.00 in0.0 mm 0.00 in0.0 mm 0.04 in1.0 mm
08:00 AM 38.5°F3.6°C 36.1°F2.3°C 91% 0.7 mph SSE1.1 kmh SSE 1.6 mph2.6 kmh 29.66 in1004.4 mb 0.00 in0.0 mm 0.00 in0.0 mm 0.04 in1.0 mm
08:15 AM 39.4°F4.1°C 36.7°F2.6°C 90% 0.5 mph NW0.8 kmh NW 1.6 mph2.6 kmh 29.67 in1004.7 mb 0.00 in0.0 mm 0.00 in0.0 mm 0.04 in1.0 mm
08:30 AM 39.6°F4.2°C 36.9°F2.7°C 90% 0.3 mph SE0.5 kmh SE 1.6 mph2.6 kmh 29.68 in1005.1 mb 0.00 in0.0 mm 0.00 in0.0 mm 0.04 in1.0 mm
08:45 AM 39.6°F4.2°C 36.9°F2.7°C 90% 1.2 mph S1.9 kmh S 2.2 mph3.5 kmh 29.67 in1004.7 mb 0.00 in0.0 mm 0.00 in0.0 mm 0.04 in1.0 mm
09:00 AM 40.3°F4.6°C 37.6°F3.1°C 90% 0.2 mph NW0.3 kmh NW 0.7 mph1.1 kmh 29.68 in1005.1 mb 0.00 in0.0 mm 0.00 in0.0 mm 0.04 in1.0 mm
09:15 AM 40.5°F4.7°C 37.8°F3.2°C 90% 0.8 mph S1.3 kmh S 1.6 mph2.6 kmh 29.69 in1005.4 mb 0.00 in0.0 mm 0.00 in0.0 mm 0.04 in1.0 mm
09:45 AM 41.2°F5.1°C 38.2°F3.4°C 89% 1.2 mph SW1.9 kmh SW 1.6 mph2.6 kmh 29.69 in1005.4 mb 0.00 in0.0 mm 0.00 in0.0 mm 0.04 in1.0 mm
10:00 AM 41.2°F5.1°C 37.9°F3.3°C 88% 0.9 mph S1.4 kmh S 1.6 mph2.6 kmh 29.69 in1005.4 mb 0.00 in0.0 mm 0.00 in0.0 mm 0.04 in1.0 mm
10:15 AM 41.5°F5.3°C 38.3°F3.5°C 88% 0.2 mph SE0.3 kmh SE 1.6 mph2.6 kmh 29.69 in1005.4 mb 0.00 in0.0 mm 0.00 in0.0 mm 0.04 in1.0 mm
10:30 AM 41.9°F5.5°C 38.6°F3.7°C 88% 0.1 mph SW0.2 kmh SW 0.7 mph1.1 kmh 29.70 in1005.8 mb 0.00 in0.0 mm 0.00 in0.0 mm 0.04 in1.0 mm
10:45 AM 42.3°F5.7°C 39.0°F3.9°C 88% 0.2 mph NW0.3 kmh NW 0.7 mph1.1 kmh 29.70 in1005.8 mb 0.00 in0.0 mm 0.00 in0.0 mm 0.04 in1.0 mm
11:00 AM 43.0°F6.1°C 39.4°F4.1°C 87% 0.5 mph NNW0.8 kmh NNW 1.6 mph2.6 kmh 29.71 in1006.1 mb 0.00 in0.0 mm 0.00 in0.0 mm 0.04 in1.0 mm
11:15 AM 43.9°F6.6°C 40.0°F4.4°C 86% 1.6 mph NNE2.6 kmh NNE 2.2 mph3.5 kmh 29.70 in1005.8 mb 0.00 in0.0 mm 0.00 in0.0 mm 0.04 in1.0 mm
11:30 AM 45.0°F7.2°C 40.1°F4.5°C 83% 1.8 mph NE2.9 kmh NE 2.2 mph3.5 kmh 29.71 in1006.1 mb 0.00 in0.0 mm 0.00 in0.0 mm 0.04 in1.0 mm
11:45 AM 45.3°F7.4°C 39.2°F4.0°C 79% 2.1 mph NNE3.4 kmh NNE 3.1 mph5.0 kmh 29.71 in1006.1 mb 0.00 in0.0 mm 0.00 in0.0 mm 0.04 in1.0 mm
12:00 PM 46.6°F8.1°C 39.1°F3.9°C 75% 1.4 mph NNE2.3 kmh NNE 2.2 mph3.5 kmh 29.71 in1006.1 mb 0.00 in0.0 mm 0.00 in0.0 mm 0.04 in1.0 mm
12:15 PM 49.6°F9.8°C 40.6°F4.8°C 71% 3.0 mph NNE4.8 kmh NNE 3.8 mph6.1 kmh 29.71 in1006.1 mb 0.00 in0.0 mm 0.00 in0.0 mm 0.04 in1.0 mm
12:30 PM 49.1°F9.5°C 38.2°F3.4°C 66% 3.1 mph NNE5.0 kmh NNE 3.8 mph6.1 kmh 29.71 in1006.1 mb 0.00 in0.0 mm 0.00 in0.0 mm 0.04 in1.0 mm
12:45 PM 50.0°F10.0°C 37.9°F3.3°C 63% 2.2 mph NE3.5 kmh NE 3.1 mph5.0 kmh 29.71 in1006.1 mb 0.00 in0.0 mm 0.00 in0.0 mm 0.04 in1.0 mm
01:00 PM 49.3°F9.6°C 37.6°F3.1°C 64% 2.1 mph NE3.4 kmh NE 4.5 mph7.2 kmh 29.71 in1006.1 mb 0.00 in0.0 mm 0.00 in0.0 mm 0.04 in1.0 mm
01:15 PM 48.0°F8.9°C 37.2°F2.9°C 66% 2.7 mph NNE4.3 kmh NNE 5.4 mph8.7 kmh 29.71 in1006.1 mb 0.00 in0.0 mm 0.00 in0.0 mm 0.04 in1.0 mm
01:30 PM 47.5°F8.6°C 37.8°F3.2°C 69% 2.8 mph N4.5 kmh N 4.5 mph7.2 kmh 29.71 in1006.1 mb 0.00 in0.0 mm 0.00 in0.0 mm 0.04 in1.0 mm
01:45 PM 47.7°F8.7°C 38.0°F3.3°C 69% 1.9 mph N3.1 kmh N 4.5 mph7.2 kmh 29.71 in1006.1 mb 0.00 in0.0 mm 0.00 in0.0 mm 0.04 in1.0 mm
02:30 PM 45.5°F7.5°C 39.4°F4.1°C 79% 0.9 mph N1.4 kmh N 1.6 mph2.6 kmh 29.72 in1006.4 mb 0.02 in0.5 mm 0.08 in2.0 mm 0.02 in0.5 mm
02:45 PM 46.8°F8.2°C 40.3°F4.6°C 78% 2.3 mph N3.7 kmh N 3.1 mph5.0 kmh 29.72 in1006.4 mb 0.02 in0.5 mm 0.00 in0.0 mm 0.02 in0.5 mm
03:00 PM 46.6°F8.1°C 39.4°F4.1°C 76% 0.7 mph W1.1 kmh W 1.6 mph2.6 kmh 29.72 in1006.4 mb 0.01 in0.3 mm 0.00 in0.0 mm 0.02 in0.5 mm
03:15 PM 45.9°F7.7°C 39.1°F3.9°C 77% 1.5 mph NNE2.4 kmh NNE 2.2 mph3.5 kmh 29.73 in1006.8 mb 0.00 in0.0 mm 0.00 in0.0 mm 0.02 in0.5 mm
04:00 PM 45.1°F7.3°C 39.0°F3.9°C 79% 0.5 mph N0.8 kmh N 1.6 mph2.6 kmh 29.73 in1006.8 mb 0.00 in0.0 mm 0.00 in0.0 mm 0.02 in0.5 mm
04:15 PM 45.0°F7.2°C 38.8°F3.8°C 79% 1.3 mph N2.1 kmh N 2.2 mph3.5 kmh 29.72 in1006.4 mb 0.00 in0.0 mm 0.00 in0.0 mm 0.02 in0.5 mm
04:30 PM 45.0°F7.2°C 39.2°F4.0°C 80% 1.3 mph NNE2.1 kmh NNE 2.2 mph3.5 kmh 29.72 in1006.4 mb 0.00 in0.0 mm 0.00 in0.0 mm 0.02 in0.5 mm
04:45 PM 45.3°F7.4°C 39.5°F4.2°C 80% 0.8 mph N1.3 kmh N 1.6 mph2.6 kmh 29.73 in1006.8 mb 0.00 in0.0 mm 0.00 in0.0 mm 0.02 in0.5 mm
05:00 PM 45.1°F7.3°C 39.0°F3.9°C 79% 0.2 mph SW0.3 kmh SW 0.7 mph1.1 kmh 29.73 in1006.8 mb 0.00 in0.0 mm 0.00 in0.0 mm 0.02 in0.5 mm
05:30 PM 43.9°F6.6°C 37.8°F3.2°C 79% Calm Calm -- 29.73 in1006.8 mb 0.00 in0.0 mm 0.00 in0.0 mm 0.02 in0.5 mm
05:45 PM 43.3°F6.3°C 37.3°F2.9°C 79% 0.2 mph N0.3 kmh N 0.7 mph1.1 kmh 29.73 in1006.8 mb 0.00 in0.0 mm 0.00 in0.0 mm 0.02 in0.5 mm
06:00 PM 42.8°F6.0°C 37.1°F2.8°C 80% Calm Calm -- 29.73 in1006.8 mb 0.00 in0.0 mm 0.00 in0.0 mm 0.02 in0.5 mm
06:15 PM 42.4°F5.8°C 37.0°F2.8°C 81% 0.2 mph WSW0.3 kmh WSW 2.2 mph3.5 kmh 29.73 in1006.8 mb 0.00 in0.0 mm 0.00 in0.0 mm 0.02 in0.5 mm
06:30 PM 42.1°F5.6°C 36.7°F2.6°C 81% Calm Calm -- 29.74 in1007.1 mb 0.00 in0.0 mm 0.00 in0.0 mm 0.02 in0.5 mm
06:45 PM 41.7°F5.4°C 36.6°F2.6°C 82% Calm Calm -- 29.74 in1007.1 mb 0.00 in0.0 mm 0.00 in0.0 mm 0.02 in0.5 mm
07:00 PM 41.4°F5.2°C 36.3°F2.4°C 82% 0.3 mph NW0.5 kmh NW 0.7 mph1.1 kmh 29.73 in1006.8 mb 0.00 in0.0 mm 0.00 in0.0 mm 0.02 in0.5 mm
07:15 PM 41.0°F5.0°C 35.6°F2.0°C 81% 0.9 mph NW1.4 kmh NW 2.2 mph3.5 kmh 29.73 in1006.8 mb 0.00 in0.0 mm 0.00 in0.0 mm 0.02 in0.5 mm
07:30 PM 39.7°F4.3°C 34.4°F1.3°C 81% Calm Calm -- 29.73 in1006.8 mb 0.00 in0.0 mm 0.00 in0.0 mm 0.02 in0.5 mm
07:45 PM 38.1°F3.4°C 32.8°F0.4°C 81% 0.1 mph WNW0.2 kmh WNW 1.6 mph2.6 kmh 29.74 in1007.1 mb 0.00 in0.0 mm 0.00 in0.0 mm 0.02 in0.5 mm
08:00 PM 37.4°F3.0°C 32.4°F0.2°C 82% 0.8 mph SW1.3 kmh SW 1.6 mph2.6 kmh 29.73 in1006.8 mb 0.00 in0.0 mm 0.00 in0.0 mm 0.02 in0.5 mm
08:15 PM 36.3°F2.4°C 30.4°F-0.9°C 79% Calm Calm -- 29.74 in1007.1 mb 0.00 in0.0 mm 0.00 in0.0 mm 0.02 in0.5 mm
08:30 PM 35.4°F1.9°C 29.9°F-1.2°C 80% Calm Calm -- 29.74 in1007.1 mb 0.00 in0.0 mm 0.00 in0.0 mm 0.02 in0.5 mm
09:00 PM 34.7°F1.5°C 29.5°F-1.4°C 81% 0.2 mph SW0.3 kmh SW 0.7 mph1.1 kmh 29.74 in1007.1 mb 0.00 in0.0 mm 0.00 in0.0 mm 0.02 in0.5 mm
09:15 PM 34.0°F1.1°C 28.8°F-1.8°C 81% Calm Calm -- 29.74 in1007.1 mb 0.00 in0.0 mm 0.00 in0.0 mm 0.02 in0.5 mm
09:30 PM 33.6°F0.9°C 28.7°F-1.8°C 82% Calm Calm -- 29.74 in1007.1 mb 0.00 in0.0 mm 0.00 in0.0 mm 0.02 in0.5 mm
09:45 PM 33.1°F0.6°C 28.2°F-2.1°C 82% 0.2 mph S0.3 kmh S 0.7 mph1.1 kmh 29.74 in1007.1 mb 0.00 in0.0 mm 0.00 in0.0 mm 0.02 in0.5 mm
10:00 PM 32.9°F0.5°C 28.3°F-2.1°C 83% 0.5 mph SW0.8 kmh SW 1.6 mph2.6 kmh 29.74 in1007.1 mb 0.00 in0.0 mm 0.00 in0.0 mm 0.02 in0.5 mm
10:30 PM 32.2°F0.1°C 27.6°F-2.4°C 83% 0.8 mph SW1.3 kmh SW 1.6 mph2.6 kmh 29.74 in1007.1 mb 0.00 in0.0 mm 0.00 in0.0 mm 0.02 in0.5 mm
10:45 PM 31.5°F-0.3°C 27.5°F-2.5°C 85% Calm Calm -- 29.74 in1007.1 mb 0.00 in0.0 mm 0.00 in0.0 mm 0.02 in0.5 mm
11:00 PM 31.3°F-0.4°C 27.3°F-2.6°C 85% 0.5 mph SW0.8 kmh SW 0.7 mph1.1 kmh 29.73 in1006.8 mb 0.00 in0.0 mm 0.00 in0.0 mm 0.02 in0.5 mm
11:15 PM 31.1°F-0.5°C 27.1°F-2.7°C 85% 0.7 mph SW1.1 kmh SW 1.6 mph2.6 kmh 29.73 in1006.8 mb 0.00 in0.0 mm 0.00 in0.0 mm 0.02 in0.5 mm
11:45 PM 30.4°F-0.9°C 26.4°F-3.1°C 85% 0.2 mph SW0.3 kmh SW 0.7 mph1.1 kmh 29.72 in1006.4 mb 0.00 in0.0 mm 0.00 in0.0 mm 0.02 in0.5 mm